sensor_id;sensor_type;location;lat;lon;timestamp;temperature;humidity
46758;DHT22;32509;47.750;-3.396;2023-09-12T00:00:09;20.30;99.90
46758;DHT22;32509;47.750;-3.396;2023-09-12T00:02:37;20.30;99.90
46758;DHT22;32509;47.750;-3.396;2023-09-12T00:05:03;20.30;99.90
46758;DHT22;32509;47.750;-3.396;2023-09-12T00:07:30;20.30;99.90
46758;DHT22;32509;47.750;-3.396;2023-09-12T00:09:56;20.20;99.90
46758;DHT22;32509;47.750;-3.396;2023-09-12T00:12:23;20.20;99.90
46758;DHT22;32509;47.750;-3.396;2023-09-12T00:14:50;20.20;99.90
46758;DHT22;32509;47.750;-3.396;2023-09-12T00:17:16;20.20;99.90
46758;DHT22;32509;47.750;-3.396;2023-09-12T00:19:43;20.20;99.90
46758;DHT22;32509;47.750;-3.396;2023-09-12T00:22:08;20.20;99.90
46758;DHT22;32509;47.750;-3.396;2023-09-12T00:24:34;20.20;99.90
46758;DHT22;32509;47.750;-3.396;2023-09-12T00:27:00;20.20;99.90
46758;DHT22;32509;47.750;-3.396;2023-09-12T00:29:26;20.20;99.90
46758;DHT22;32509;47.750;-3.396;2023-09-12T00:31:51;20.10;99.90
46758;DHT22;32509;47.750;-3.396;2023-09-12T00:34:17;20.20;99.90
46758;DHT22;32509;47.750;-3.396;2023-09-12T00:36:44;20.10;99.90
46758;DHT22;32509;47.750;-3.396;2023-09-12T00:39:09;20.20;99.90
46758;DHT22;32509;47.750;-3.396;2023-09-12T00:41:35;20.10;99.90
46758;DHT22;32509;47.750;-3.396;2023-09-12T00:44:01;20.20;99.90
46758;DHT22;32509;47.750;-3.396;2023-09-12T00:46:27;20.10;99.90
46758;DHT22;32509;47.750;-3.396;2023-09-12T00:48:55;20.10;99.90
46758;DHT22;32509;47.750;-3.396;2023-09-12T00:51:24;20.10;99.90
46758;DHT22;32509;47.750;-3.396;2023-09-12T00:53:50;20.10;99.90
46758;DHT22;32509;47.750;-3.396;2023-09-12T00:56:16;20.10;99.90
46758;DHT22;32509;47.750;-3.396;2023-09-12T00:58:45;20.10;99.90
46758;DHT22;32509;47.750;-3.396;2023-09-12T01:01:11;20.10;99.90
46758;DHT22;32509;47.750;-3.396;2023-09-12T01:03:37;20.20;99.90
46758;DHT22;32509;47.750;-3.396;2023-09-12T01:06:04;20.10;99.90
46758;DHT22;32509;47.750;-3.396;2023-09-12T01:08:32;20.10;99.90
46758;DHT22;32509;47.750;-3.396;2023-09-12T01:10:58;20.10;99.90
46758;DHT22;32509;47.750;-3.396;2023-09-12T01:13:24;20.10;99.90
46758;DHT22;32509;47.750;-3.396;2023-09-12T01:15:50;20.10;99.90
46758;DHT22;32509;47.750;-3.396;2023-09-12T01:18:16;20.10;99.90
46758;DHT22;32509;47.750;-3.396;2023-09-12T01:20:52;20.10;99.90
46758;DHT22;32509;47.750;-3.396;2023-09-12T01:23:35;20.10;99.90
46758;DHT22;32509;47.750;-3.396;2023-09-12T01:26:16;20.10;99.90
46758;DHT22;32509;47.750;-3.396;2023-09-12T01:28:45;20.10;99.90
46758;DHT22;32509;47.750;-3.396;2023-09-12T01:31:12;20.10;99.90
46758;DHT22;32509;47.750;-3.396;2023-09-12T01:33:39;20.10;99.90
46758;DHT22;32509;47.750;-3.396;2023-09-12T01:36:05;20.10;99.90
46758;DHT22;32509;47.750;-3.396;2023-09-12T01:38:31;20.10;99.90
46758;DHT22;32509;47.750;-3.396;2023-09-12T01:40:57;20.10;99.90
46758;DHT22;32509;47.750;-3.396;2023-09-12T01:43:25;20.10;99.90
46758;DHT22;32509;47.750;-3.396;2023-09-12T01:45:56;20.10;99.90
46758;DHT22;32509;47.750;-3.396;2023-09-12T01:48:26;20.10;99.90
46758;DHT22;32509;47.750;-3.396;2023-09-12T01:50:54;20.10;99.90
46758;DHT22;32509;47.750;-3.396;2023-09-12T01:53:20;20.10;99.90
46758;DHT22;32509;47.750;-3.396;2023-09-12T01:55:47;20.10;99.90
46758;DHT22;32509;47.750;-3.396;2023-09-12T01:58:13;20.10;99.90
46758;DHT22;32509;47.750;-3.396;2023-09-12T02:00:42;20.10;99.90
46758;DHT22;32509;47.750;-3.396;2023-09-12T02:03:08;20.10;99.90
46758;DHT22;32509;47.750;-3.396;2023-09-12T02:05:34;20.10;99.90
46758;DHT22;32509;47.750;-3.396;2023-09-12T02:08:01;20.10;99.90
46758;DHT22;32509;47.750;-3.396;2023-09-12T02:10:27;20.10;99.90
46758;DHT22;32509;47.750;-3.396;2023-09-12T02:12:53;20.10;99.90
46758;DHT22;32509;47.750;-3.396;2023-09-12T02:15:19;20.20;99.90
46758;DHT22;32509;47.750;-3.396;2023-09-12T02:17:45;20.10;99.90
46758;DHT22;32509;47.750;-3.396;2023-09-12T02:20:10;20.10;99.90
46758;DHT22;32509;47.750;-3.396;2023-09-12T02:22:37;20.10;99.90
46758;DHT22;32509;47.750;-3.396;2023-09-12T02:25:05;20.10;99.90
46758;DHT22;32509;47.750;-3.396;2023-09-12T02:27:31;20.10;99.90
46758;DHT22;32509;47.750;-3.396;2023-09-12T02:29:57;20.10;99.90
46758;DHT22;32509;47.750;-3.396;2023-09-12T02:32:23;20.20;99.90
46758;DHT22;32509;47.750;-3.396;2023-09-12T02:34:49;20.10;99.90
46758;DHT22;32509;47.750;-3.396;2023-09-12T02:37:14;20.10;99.90
46758;DHT22;32509;47.750;-3.396;2023-09-12T02:39:41;20.10;99.90
46758;DHT22;32509;47.750;-3.396;2023-09-12T02:42:07;20.10;99.90
46758;DHT22;32509;47.750;-3.396;2023-09-12T02:44:32;20.10;99.90
46758;DHT22;32509;47.750;-3.396;2023-09-12T02:46:58;20.10;99.90
46758;DHT22;32509;47.750;-3.396;2023-09-12T02:49:24;20.10;99.90
46758;DHT22;32509;47.750;-3.396;2023-09-12T02:51:50;20.10;99.90
46758;DHT22;32509;47.750;-3.396;2023-09-12T02:54:15;20.10;99.90
46758;DHT22;32509;47.750;-3.396;2023-09-12T02:56:41;20.00;99.90
46758;DHT22;32509;47.750;-3.396;2023-09-12T02:59:07;20.10;99.90
46758;DHT22;32509;47.750;-3.396;2023-09-12T03:01:33;20.00;99.90
46758;DHT22;32509;47.750;-3.396;2023-09-12T03:03:58;20.00;99.90
46758;DHT22;32509;47.750;-3.396;2023-09-12T03:06:24;20.00;99.90
46758;DHT22;32509;47.750;-3.396;2023-09-12T03:08:51;20.00;99.90
46758;DHT22;32509;47.750;-3.396;2023-09-12T03:11:16;20.00;99.90
46758;DHT22;32509;47.750;-3.396;2023-09-12T03:13:42;20.00;99.90
46758;DHT22;32509;47.750;-3.396;2023-09-12T03:16:11;20.00;99.90
46758;DHT22;32509;47.750;-3.396;2023-09-12T03:18:37;20.00;99.90
46758;DHT22;32509;47.750;-3.396;2023-09-12T03:21:03;20.00;99.90
46758;DHT22;32509;47.750;-3.396;2023-09-12T03:23:29;20.00;99.90
46758;DHT22;32509;47.750;-3.396;2023-09-12T03:25:55;20.00;99.90
46758;DHT22;32509;47.750;-3.396;2023-09-12T03:28:20;20.00;99.90
46758;DHT22;32509;47.750;-3.396;2023-09-12T03:30:46;20.00;99.90
46758;DHT22;32509;47.750;-3.396;2023-09-12T03:33:12;20.00;99.90
46758;DHT22;32509;47.750;-3.396;2023-09-12T03:35:38;19.90;99.90
46758;DHT22;32509;47.750;-3.396;2023-09-12T03:38:04;19.90;99.90
46758;DHT22;32509;47.750;-3.396;2023-09-12T03:40:30;19.90;99.90
46758;DHT22;32509;47.750;-3.396;2023-09-12T03:42:56;19.90;99.90
46758;DHT22;32509;47.750;-3.396;2023-09-12T03:45:22;19.90;99.90
46758;DHT22;32509;47.750;-3.396;2023-09-12T03:47:48;20.00;99.90
46758;DHT22;32509;47.750;-3.396;2023-09-12T03:50:14;19.90;99.90
46758;DHT22;32509;47.750;-3.396;2023-09-12T03:52:40;19.90;99.90
46758;DHT22;32509;47.750;-3.396;2023-09-12T03:55:06;19.90;99.90
46758;DHT22;32509;47.750;-3.396;2023-09-12T03:57:32;19.90;99.90
46758;DHT22;32509;47.750;-3.396;2023-09-12T03:59:58;19.90;99.90
46758;DHT22;32509;47.750;-3.396;2023-09-12T04:02:24;19.90;99.90
46758;DHT22;32509;47.750;-3.396;2023-09-12T04:04:50;19.90;99.90
46758;DHT22;32509;47.750;-3.396;2023-09-12T04:07:17;19.90;99.90
46758;DHT22;32509;47.750;-3.396;2023-09-12T04:09:43;19.90;99.90
46758;DHT22;32509;47.750;-3.396;2023-09-12T04:12:09;19.80;99.90
46758;DHT22;32509;47.750;-3.396;2023-09-12T04:14:35;19.80;99.90
46758;DHT22;32509;47.750;-3.396;2023-09-12T04:17:01;19.80;99.90
46758;DHT22;32509;47.750;-3.396;2023-09-12T04:19:27;19.80;99.90
46758;DHT22;32509;47.750;-3.396;2023-09-12T04:21:53;19.80;99.90
46758;DHT22;32509;47.750;-3.396;2023-09-12T04:24:18;19.80;99.90
46758;DHT22;32509;47.750;-3.396;2023-09-12T04:26:44;19.80;99.90
46758;DHT22;32509;47.750;-3.396;2023-09-12T04:29:10;19.80;99.90
46758;DHT22;32509;47.750;-3.396;2023-09-12T04:31:36;19.80;99.90
46758;DHT22;32509;47.750;-3.396;2023-09-12T04:34:02;19.70;99.90
46758;DHT22;32509;47.750;-3.396;2023-09-12T04:36:28;19.70;99.90
46758;DHT22;32509;47.750;-3.396;2023-09-12T04:38:54;19.70;99.90
46758;DHT22;32509;47.750;-3.396;2023-09-12T04:41:19;19.70;99.90
46758;DHT22;32509;47.750;-3.396;2023-09-12T04:43:46;19.70;99.90
46758;DHT22;32509;47.750;-3.396;2023-09-12T04:46:12;19.70;99.90
46758;DHT22;32509;47.750;-3.396;2023-09-12T04:48:38;19.70;99.90
46758;DHT22;32509;47.750;-3.396;2023-09-12T04:51:05;19.70;99.90
46758;DHT22;32509;47.750;-3.396;2023-09-12T04:53:30;19.60;99.90
46758;DHT22;32509;47.750;-3.396;2023-09-12T04:56:01;19.70;99.90
46758;DHT22;32509;47.750;-3.396;2023-09-12T04:58:27;19.60;99.90
46758;DHT22;32509;47.750;-3.396;2023-09-12T05:00:54;19.60;99.90
46758;DHT22;32509;47.750;-3.396;2023-09-12T05:03:20;19.60;99.90
46758;DHT22;32509;47.750;-3.396;2023-09-12T05:05:47;19.60;99.90
46758;DHT22;32509;47.750;-3.396;2023-09-12T05:08:13;19.60;99.90
46758;DHT22;32509;47.750;-3.396;2023-09-12T05:10:39;19.60;99.90
46758;DHT22;32509;47.750;-3.396;2023-09-12T05:13:05;19.60;99.90
46758;DHT22;32509;47.750;-3.396;2023-09-12T05:15:31;19.60;99.90
46758;DHT22;32509;47.750;-3.396;2023-09-12T05:17:57;19.50;99.90
46758;DHT22;32509;47.750;-3.396;2023-09-12T05:20:23;19.50;99.90
46758;DHT22;32509;47.750;-3.396;2023-09-12T05:22:48;19.50;99.90
46758;DHT22;32509;47.750;-3.396;2023-09-12T05:25:14;19.50;99.90
46758;DHT22;32509;47.750;-3.396;2023-09-12T05:27:40;19.50;99.90
46758;DHT22;32509;47.750;-3.396;2023-09-12T05:30:06;19.50;99.90
46758;DHT22;32509;47.750;-3.396;2023-09-12T05:32:32;19.50;99.90
46758;DHT22;32509;47.750;-3.396;2023-09-12T05:34:58;19.50;99.90
46758;DHT22;32509;47.750;-3.396;2023-09-12T05:37:24;19.50;99.90
46758;DHT22;32509;47.750;-3.396;2023-09-12T05:39:49;19.50;99.90
46758;DHT22;32509;47.750;-3.396;2023-09-12T05:42:15;19.50;99.90
46758;DHT22;32509;47.750;-3.396;2023-09-12T05:44:47;19.50;99.90
46758;DHT22;32509;47.750;-3.396;2023-09-12T05:47:13;19.50;99.90
46758;DHT22;32509;47.750;-3.396;2023-09-12T05:49:38;19.50;99.90
46758;DHT22;32509;47.750;-3.396;2023-09-12T05:52:04;19.50;99.90
46758;DHT22;32509;47.750;-3.396;2023-09-12T05:54:31;19.50;99.90
46758;DHT22;32509;47.750;-3.396;2023-09-12T05:56:57;19.50;99.90
46758;DHT22;32509;47.750;-3.396;2023-09-12T05:59:22;19.50;99.90
46758;DHT22;32509;47.750;-3.396;2023-09-12T06:01:48;19.50;99.90
46758;DHT22;32509;47.750;-3.396;2023-09-12T06:04:14;19.50;99.90
46758;DHT22;32509;47.750;-3.396;2023-09-12T06:06:40;19.50;99.90
46758;DHT22;32509;47.750;-3.396;2023-09-12T06:09:06;19.50;99.90
46758;DHT22;32509;47.750;-3.396;2023-09-12T06:11:34;19.50;99.90
46758;DHT22;32509;47.750;-3.396;2023-09-12T06:13:59;19.50;99.90
46758;DHT22;32509;47.750;-3.396;2023-09-12T06:16:25;19.50;99.90
46758;DHT22;32509;47.750;-3.396;2023-09-12T06:18:52;19.50;99.90
46758;DHT22;32509;47.750;-3.396;2023-09-12T06:21:19;19.50;99.90
46758;DHT22;32509;47.750;-3.396;2023-09-12T06:24:08;19.50;99.90
46758;DHT22;32509;47.750;-3.396;2023-09-12T06:26:32;19.40;99.90
46758;DHT22;32509;47.750;-3.396;2023-09-12T06:28:59;19.50;99.90
46758;DHT22;32509;47.750;-3.396;2023-09-12T06:31:24;19.50;99.90
46758;DHT22;32509;47.750;-3.396;2023-09-12T06:33:50;19.50;99.90
46758;DHT22;32509;47.750;-3.396;2023-09-12T06:36:16;19.50;99.90
46758;DHT22;32509;47.750;-3.396;2023-09-12T06:38:42;19.40;99.90
46758;DHT22;32509;47.750;-3.396;2023-09-12T06:41:07;19.50;99.90
46758;DHT22;32509;47.750;-3.396;2023-09-12T06:43:33;19.50;99.90
46758;DHT22;32509;47.750;-3.396;2023-09-12T06:45:59;19.50;99.90
46758;DHT22;32509;47.750;-3.396;2023-09-12T06:48:25;19.50;99.90
46758;DHT22;32509;47.750;-3.396;2023-09-12T06:50:50;19.50;99.90
46758;DHT22;32509;47.750;-3.396;2023-09-12T06:53:16;19.50;99.90
46758;DHT22;32509;47.750;-3.396;2023-09-12T06:55:42;19.50;99.90
46758;DHT22;32509;47.750;-3.396;2023-09-12T06:58:08;19.50;99.90
46758;DHT22;32509;47.750;-3.396;2023-09-12T07:00:34;19.60;99.90
46758;DHT22;32509;47.750;-3.396;2023-09-12T07:02:59;19.60;99.90
46758;DHT22;32509;47.750;-3.396;2023-09-12T07:05:25;19.50;99.90
46758;DHT22;32509;47.750;-3.396;2023-09-12T07:07:52;19.50;99.90
46758;DHT22;32509;47.750;-3.396;2023-09-12T07:10:18;19.60;99.90
46758;DHT22;32509;47.750;-3.396;2023-09-12T07:12:43;19.60;99.90
46758;DHT22;32509;47.750;-3.396;2023-09-12T07:15:10;19.60;99.90
46758;DHT22;32509;47.750;-3.396;2023-09-12T07:17:36;19.60;99.90
46758;DHT22;32509;47.750;-3.396;2023-09-12T07:20:01;19.60;99.90
46758;DHT22;32509;47.750;-3.396;2023-09-12T07:22:28;19.60;99.90
46758;DHT22;32509;47.750;-3.396;2023-09-12T07:24:54;19.60;99.90
46758;DHT22;32509;47.750;-3.396;2023-09-12T07:27:20;19.60;99.90
46758;DHT22;32509;47.750;-3.396;2023-09-12T07:29:45;19.60;99.90
46758;DHT22;32509;47.750;-3.396;2023-09-12T07:32:11;19.60;99.90
46758;DHT22;32509;47.750;-3.396;2023-09-12T07:34:37;19.70;99.90
46758;DHT22;32509;47.750;-3.396;2023-09-12T07:37:03;19.70;99.90
46758;DHT22;32509;47.750;-3.396;2023-09-12T07:39:29;19.60;99.90
46758;DHT22;32509;47.750;-3.396;2023-09-12T07:41:55;19.60;99.90
46758;DHT22;32509;47.750;-3.396;2023-09-12T07:44:20;19.60;99.90
46758;DHT22;32509;47.750;-3.396;2023-09-12T07:46:46;19.60;99.90
46758;DHT22;32509;47.750;-3.396;2023-09-12T07:49:12;19.60;99.90
46758;DHT22;32509;47.750;-3.396;2023-09-12T07:51:38;19.60;99.90
46758;DHT22;32509;47.750;-3.396;2023-09-12T07:54:04;19.60;99.90
46758;DHT22;32509;47.750;-3.396;2023-09-12T07:56:29;19.60;99.90
46758;DHT22;32509;47.750;-3.396;2023-09-12T07:58:57;19.60;99.90
46758;DHT22;32509;47.750;-3.396;2023-09-12T08:01:23;19.60;99.90
46758;DHT22;32509;47.750;-3.396;2023-09-12T08:03:48;19.70;99.90
46758;DHT22;32509;47.750;-3.396;2023-09-12T08:06:14;19.70;99.90
46758;DHT22;32509;47.750;-3.396;2023-09-12T08:08:40;19.70;99.90
46758;DHT22;32509;47.750;-3.396;2023-09-12T08:11:05;19.70;99.90
46758;DHT22;32509;47.750;-3.396;2023-09-12T08:13:31;19.70;99.90
46758;DHT22;32509;47.750;-3.396;2023-09-12T08:15:57;19.70;99.90
46758;DHT22;32509;47.750;-3.396;2023-09-12T08:18:28;19.70;99.90
46758;DHT22;32509;47.750;-3.396;2023-09-12T08:20:54;19.80;99.90
46758;DHT22;32509;47.750;-3.396;2023-09-12T08:23:20;19.80;99.90
46758;DHT22;32509;47.750;-3.396;2023-09-12T08:25:46;19.80;99.90
46758;DHT22;32509;47.750;-3.396;2023-09-12T08:28:12;19.80;99.90
46758;DHT22;32509;47.750;-3.396;2023-09-12T08:30:37;19.80;99.90
46758;DHT22;32509;47.750;-3.396;2023-09-12T08:33:03;19.80;99.90
46758;DHT22;32509;47.750;-3.396;2023-09-12T08:35:29;19.90;99.90
46758;DHT22;32509;47.750;-3.396;2023-09-12T08:37:55;19.90;99.90
46758;DHT22;32509;47.750;-3.396;2023-09-12T08:40:21;19.90;99.90
46758;DHT22;32509;47.750;-3.396;2023-09-12T08:42:50;19.90;99.90
46758;DHT22;32509;47.750;-3.396;2023-09-12T08:45:19;20.00;99.90
46758;DHT22;32509;47.750;-3.396;2023-09-12T08:47:49;20.00;99.90
46758;DHT22;32509;47.750;-3.396;2023-09-12T08:50:16;20.00;99.90
46758;DHT22;32509;47.750;-3.396;2023-09-12T08:52:46;20.10;99.90
46758;DHT22;32509;47.750;-3.396;2023-09-12T08:55:12;20.10;99.90
46758;DHT22;32509;47.750;-3.396;2023-09-12T08:57:42;20.10;99.90
46758;DHT22;32509;47.750;-3.396;2023-09-12T09:00:09;20.10;99.90
46758;DHT22;32509;47.750;-3.396;2023-09-12T09:02:36;20.10;99.90
46758;DHT22;32509;47.750;-3.396;2023-09-12T09:05:04;20.20;99.90
46758;DHT22;32509;47.750;-3.396;2023-09-12T09:07:41;20.20;99.90
46758;DHT22;32509;47.750;-3.396;2023-09-12T09:10:14;20.30;99.90
46758;DHT22;32509;47.750;-3.396;2023-09-12T09:12:43;20.30;99.90
46758;DHT22;32509;47.750;-3.396;2023-09-12T09:15:29;20.30;99.90
46758;DHT22;32509;47.750;-3.396;2023-09-12T09:17:56;20.40;99.90
46758;DHT22;32509;47.750;-3.396;2023-09-12T09:20:26;20.40;99.90
46758;DHT22;32509;47.750;-3.396;2023-09-12T09:23:11;20.40;99.90
46758;DHT22;32509;47.750;-3.396;2023-09-12T09:25:41;20.50;99.90
46758;DHT22;32509;47.750;-3.396;2023-09-12T09:28:18;20.40;99.90
46758;DHT22;32509;47.750;-3.396;2023-09-12T09:30:49;20.50;99.90
46758;DHT22;32509;47.750;-3.396;2023-09-12T09:33:16;20.60;99.90
46758;DHT22;32509;47.750;-3.396;2023-09-12T09:35:43;20.60;99.90
46758;DHT22;32509;47.750;-3.396;2023-09-12T09:38:09;20.70;99.90
46758;DHT22;32509;47.750;-3.396;2023-09-12T09:40:35;20.70;99.90
46758;DHT22;32509;47.750;-3.396;2023-09-12T09:43:03;20.80;99.90
46758;DHT22;32509;47.750;-3.396;2023-09-12T09:45:32;20.80;99.90
46758;DHT22;32509;47.750;-3.396;2023-09-12T09:48:04;20.80;99.90
46758;DHT22;32509;47.750;-3.396;2023-09-12T09:50:30;20.80;99.90
46758;DHT22;32509;47.750;-3.396;2023-09-12T09:52:55;20.90;99.90
46758;DHT22;32509;47.750;-3.396;2023-09-12T09:55:23;21.00;99.90
46758;DHT22;32509;47.750;-3.396;2023-09-12T09:57:49;21.00;99.90
46758;DHT22;32509;47.750;-3.396;2023-09-12T10:00:19;21.10;99.90
46758;DHT22;32509;47.750;-3.396;2023-09-12T10:02:47;21.10;99.90
46758;DHT22;32509;47.750;-3.396;2023-09-12T10:05:14;21.10;99.90
46758;DHT22;32509;47.750;-3.396;2023-09-12T10:07:47;21.10;99.90
46758;DHT22;32509;47.750;-3.396;2023-09-12T10:10:14;21.20;99.90
46758;DHT22;32509;47.750;-3.396;2023-09-12T10:12:51;21.20;99.90
46758;DHT22;32509;47.750;-3.396;2023-09-12T10:15:19;21.30;99.90
46758;DHT22;32509;47.750;-3.396;2023-09-12T10:17:50;21.30;99.90
46758;DHT22;32509;47.750;-3.396;2023-09-12T10:20:20;21.30;99.90
46758;DHT22;32509;47.750;-3.396;2023-09-12T10:23:05;21.40;99.90
46758;DHT22;32509;47.750;-3.396;2023-09-12T10:25:35;21.30;99.90
46758;DHT22;32509;47.750;-3.396;2023-09-12T10:28:04;21.30;99.90
46758;DHT22;32509;47.750;-3.396;2023-09-12T10:30:31;21.30;99.90
46758;DHT22;32509;47.750;-3.396;2023-09-12T10:32:58;21.40;99.90
46758;DHT22;32509;47.750;-3.396;2023-09-12T10:35:24;21.30;99.90
46758;DHT22;32509;47.750;-3.396;2023-09-12T10:37:51;21.40;99.90
46758;DHT22;32509;47.750;-3.396;2023-09-12T10:40:20;21.40;99.90
46758;DHT22;32509;47.750;-3.396;2023-09-12T10:42:47;21.40;99.90
46758;DHT22;32509;47.750;-3.396;2023-09-12T10:45:13;21.40;99.90
46758;DHT22;32509;47.750;-3.396;2023-09-12T10:47:39;21.50;99.90
46758;DHT22;32509;47.750;-3.396;2023-09-12T10:50:06;21.50;99.90
46758;DHT22;32509;47.750;-3.396;2023-09-12T10:52:32;21.50;99.90
46758;DHT22;32509;47.750;-3.396;2023-09-12T10:55:04;21.50;99.90
46758;DHT22;32509;47.750;-3.396;2023-09-12T10:57:30;21.50;99.90
46758;DHT22;32509;47.750;-3.396;2023-09-12T11:05:01;21.50;99.90
46758;DHT22;32509;47.750;-3.396;2023-09-12T11:12:43;21.60;99.90
46758;DHT22;32509;47.750;-3.396;2023-09-12T11:15:10;21.70;99.90
46758;DHT22;32509;47.750;-3.396;2023-09-12T11:17:43;21.70;99.90
46758;DHT22;32509;47.750;-3.396;2023-09-12T11:20:13;21.70;99.90
46758;DHT22;32509;47.750;-3.396;2023-09-12T11:22:44;21.70;99.90
46758;DHT22;32509;47.750;-3.396;2023-09-12T11:25:21;21.80;99.90
46758;DHT22;32509;47.750;-3.396;2023-09-12T11:30:23;21.80;99.90
46758;DHT22;32509;47.750;-3.396;2023-09-12T11:32:53;21.80;99.90
46758;DHT22;32509;47.750;-3.396;2023-09-12T11:35:29;21.80;99.90
46758;DHT22;32509;47.750;-3.396;2023-09-12T11:37:57;21.80;99.90
46758;DHT22;32509;47.750;-3.396;2023-09-12T11:40:42;21.70;99.90
46758;DHT22;32509;47.750;-3.396;2023-09-12T11:43:19;21.80;99.90
46758;DHT22;32509;47.750;-3.396;2023-09-12T11:45:45;21.80;99.90
46758;DHT22;32509;47.750;-3.396;2023-09-12T11:48:12;21.90;99.90
46758;DHT22;32509;47.750;-3.396;2023-09-12T11:50:38;21.90;99.90
46758;DHT22;32509;47.750;-3.396;2023-09-12T11:53:09;21.90;99.90
46758;DHT22;32509;47.750;-3.396;2023-09-12T11:55:44;21.90;99.90
46758;DHT22;32509;47.750;-3.396;2023-09-12T11:58:12;21.90;99.90
46758;DHT22;32509;47.750;-3.396;2023-09-12T12:00:47;21.90;99.90
46758;DHT22;32509;47.750;-3.396;2023-09-12T12:03:14;21.90;99.90
46758;DHT22;32509;47.750;-3.396;2023-09-12T12:05:40;22.00;99.90
46758;DHT22;32509;47.750;-3.396;2023-09-12T12:08:10;22.00;99.90
46758;DHT22;32509;47.750;-3.396;2023-09-12T12:10:36;22.00;99.90
46758;DHT22;32509;47.750;-3.396;2023-09-12T12:13:05;21.90;99.90
46758;DHT22;32509;47.750;-3.396;2023-09-12T12:15:30;22.00;99.90
46758;DHT22;32509;47.750;-3.396;2023-09-12T12:17:58;22.00;99.90
46758;DHT22;32509;47.750;-3.396;2023-09-12T12:20:23;22.00;99.90
46758;DHT22;32509;47.750;-3.396;2023-09-12T12:22:49;22.00;99.90
46758;DHT22;32509;47.750;-3.396;2023-09-12T12:25:18;22.00;99.90
46758;DHT22;32509;47.750;-3.396;2023-09-12T12:27:44;22.10;99.90
46758;DHT22;32509;47.750;-3.396;2023-09-12T12:30:12;22.10;99.90
46758;DHT22;32509;47.750;-3.396;2023-09-12T12:32:43;22.10;99.90
46758;DHT22;32509;47.750;-3.396;2023-09-12T12:35:22;22.10;99.90
46758;DHT22;32509;47.750;-3.396;2023-09-12T12:37:54;22.10;99.90
46758;DHT22;32509;47.750;-3.396;2023-09-12T12:40:23;22.10;99.90
46758;DHT22;32509;47.750;-3.396;2023-09-12T12:42:50;22.10;99.90
46758;DHT22;32509;47.750;-3.396;2023-09-12T12:45:18;22.10;99.90
46758;DHT22;32509;47.750;-3.396;2023-09-12T12:47:44;22.10;99.90
46758;DHT22;32509;47.750;-3.396;2023-09-12T12:50:12;22.10;99.90
46758;DHT22;32509;47.750;-3.396;2023-09-12T12:52:38;22.00;99.90
46758;DHT22;32509;47.750;-3.396;2023-09-12T12:55:12;22.00;99.90
46758;DHT22;32509;47.750;-3.396;2023-09-12T12:57:39;22.00;99.90
46758;DHT22;32509;47.750;-3.396;2023-09-12T13:00:23;22.00;99.90
46758;DHT22;32509;47.750;-3.396;2023-09-12T13:02:49;22.00;99.90
46758;DHT22;32509;47.750;-3.396;2023-09-12T13:07:49;22.00;99.90
46758;DHT22;32509;47.750;-3.396;2023-09-12T13:10:16;22.00;99.90
46758;DHT22;32509;47.750;-3.396;2023-09-12T13:12:41;22.00;99.90
46758;DHT22;32509;47.750;-3.396;2023-09-12T13:15:10;21.90;99.90
46758;DHT22;32509;47.750;-3.396;2023-09-12T13:17:36;21.90;99.90
46758;DHT22;32509;47.750;-3.396;2023-09-12T13:20:02;21.90;99.90
46758;DHT22;32509;47.750;-3.396;2023-09-12T13:22:28;22.00;99.90
46758;DHT22;32509;47.750;-3.396;2023-09-12T13:24:54;22.00;99.90
46758;DHT22;32509;47.750;-3.396;2023-09-12T13:27:19;22.00;99.90
46758;DHT22;32509;47.750;-3.396;2023-09-12T13:29:45;21.90;99.90
46758;DHT22;32509;47.750;-3.396;2023-09-12T13:32:13;22.00;99.90
46758;DHT22;32509;47.750;-3.396;2023-09-12T13:34:41;22.00;99.90
46758;DHT22;32509;47.750;-3.396;2023-09-12T13:37:06;21.90;99.90
46758;DHT22;32509;47.750;-3.396;2023-09-12T13:39:32;22.00;99.90
46758;DHT22;32509;47.750;-3.396;2023-09-12T13:41:58;22.00;99.90
46758;DHT22;32509;47.750;-3.396;2023-09-12T13:44:27;22.00;99.90
46758;DHT22;32509;47.750;-3.396;2023-09-12T13:46:53;22.00;99.90
46758;DHT22;32509;47.750;-3.396;2023-09-12T13:49:19;22.00;99.90
46758;DHT22;32509;47.750;-3.396;2023-09-12T13:51:44;22.00;99.90
46758;DHT22;32509;47.750;-3.396;2023-09-12T13:54:10;22.00;99.90
46758;DHT22;32509;47.750;-3.396;2023-09-12T13:56:44;22.00;99.90
46758;DHT22;32509;47.750;-3.396;2023-09-12T13:59:10;22.00;99.90
46758;DHT22;32509;47.750;-3.396;2023-09-12T14:01:37;22.00;99.90
46758;DHT22;32509;47.750;-3.396;2023-09-12T14:04:03;22.00;99.90
46758;DHT22;32509;47.750;-3.396;2023-09-12T14:06:29;22.00;99.90
46758;DHT22;32509;47.750;-3.396;2023-09-12T14:08:55;22.00;99.90
46758;DHT22;32509;47.750;-3.396;2023-09-12T14:11:21;22.00;99.90
46758;DHT22;32509;47.750;-3.396;2023-09-12T14:13:47;22.00;99.90
46758;DHT22;32509;47.750;-3.396;2023-09-12T14:16:13;22.00;99.90
46758;DHT22;32509;47.750;-3.396;2023-09-12T14:18:39;22.00;99.90
46758;DHT22;32509;47.750;-3.396;2023-09-12T14:21:05;22.00;99.90
46758;DHT22;32509;47.750;-3.396;2023-09-12T14:23:30;22.00;99.90
46758;DHT22;32509;47.750;-3.396;2023-09-12T14:25:56;22.00;99.90
46758;DHT22;32509;47.750;-3.396;2023-09-12T14:28:22;22.00;99.90
46758;DHT22;32509;47.750;-3.396;2023-09-12T14:30:48;22.00;99.90
46758;DHT22;32509;47.750;-3.396;2023-09-12T14:33:15;22.00;99.90
46758;DHT22;32509;47.750;-3.396;2023-09-12T14:35:43;22.00;99.90
46758;DHT22;32509;47.750;-3.396;2023-09-12T14:38:09;22.00;99.90
46758;DHT22;32509;47.750;-3.396;2023-09-12T14:40:35;22.00;99.90
46758;DHT22;32509;47.750;-3.396;2023-09-12T14:43:03;22.00;99.90
46758;DHT22;32509;47.750;-3.396;2023-09-12T14:45:29;22.00;99.90
46758;DHT22;32509;47.750;-3.396;2023-09-12T14:47:56;22.00;99.90
46758;DHT22;32509;47.750;-3.396;2023-09-12T14:50:24;21.90;99.90
46758;DHT22;32509;47.750;-3.396;2023-09-12T14:52:54;21.90;99.90
46758;DHT22;32509;47.750;-3.396;2023-09-12T14:55:21;22.00;99.90
46758;DHT22;32509;47.750;-3.396;2023-09-12T14:57:48;22.00;99.90
46758;DHT22;32509;47.750;-3.396;2023-09-12T15:00:15;21.90;99.90
46758;DHT22;32509;47.750;-3.396;2023-09-12T15:02:40;22.00;99.90
46758;DHT22;32509;47.750;-3.396;2023-09-12T15:05:07;21.90;99.90
46758;DHT22;32509;47.750;-3.396;2023-09-12T15:07:33;21.90;99.90
46758;DHT22;32509;47.750;-3.396;2023-09-12T15:10:01;21.90;99.90
46758;DHT22;32509;47.750;-3.396;2023-09-12T15:12:27;21.90;99.90
46758;DHT22;32509;47.750;-3.396;2023-09-12T15:14:53;21.90;99.90
46758;DHT22;32509;47.750;-3.396;2023-09-12T15:17:19;21.80;99.90
46758;DHT22;32509;47.750;-3.396;2023-09-12T15:19:44;21.90;99.90
46758;DHT22;32509;47.750;-3.396;2023-09-12T15:22:10;21.80;99.90
46758;DHT22;32509;47.750;-3.396;2023-09-12T15:24:36;21.80;99.90
46758;DHT22;32509;47.750;-3.396;2023-09-12T15:27:02;21.80;99.90
46758;DHT22;32509;47.750;-3.396;2023-09-12T15:29:28;21.80;99.90